createdAt,value
2023-04-18T00:01:28.812Z,7.95
2023-04-18T00:03:55.911Z,7.92
2023-04-18T00:06:22.456Z,7.99
2023-04-18T00:08:49.185Z,7.95
2023-04-18T00:11:15.756Z,7.84
2023-04-18T00:13:42.285Z,7.85
2023-04-18T00:16:08.935Z,7.79
2023-04-18T00:18:36.805Z,7.88
2023-04-18T00:21:04.347Z,7.75
2023-04-18T00:23:31.188Z,7.85
2023-04-18T00:25:57.740Z,7.88
2023-04-18T00:28:24.196Z,7.93
2023-04-18T00:30:50.923Z,7.91
2023-04-18T00:33:17.728Z,7.95
2023-04-18T00:35:44.321Z,7.99
2023-04-18T00:38:10.854Z,7.99
2023-04-18T00:40:38.247Z,7.99
2023-04-18T00:43:06.862Z,7.67
2023-04-18T00:45:33.296Z,7.91
2023-04-18T00:47:59.787Z,7.86
2023-04-18T00:50:26.440Z,7.96
2023-04-18T00:52:53.853Z,7.94
2023-04-18T00:55:21.416Z,7.91
2023-04-18T00:57:47.956Z,7.84
2023-04-18T01:00:15.106Z,7.84
2023-04-18T01:02:41.634Z,7.78
2023-04-18T01:05:08.730Z,7.72
2023-04-18T01:07:37.992Z,7.53
2023-04-18T01:10:05.101Z,7.61
2023-04-18T01:12:31.674Z,7.56
2023-04-18T01:14:58.808Z,7.49
2023-04-18T01:17:25.283Z,7.41
2023-04-18T01:19:51.739Z,7.36
2023-04-18T01:22:19.826Z,7.34
2023-04-18T01:24:46.419Z,7.01
2023-04-18T01:27:13.837Z,7.14
2023-04-18T01:29:41.076Z,7.18
2023-04-18T01:32:07.641Z,7.12
2023-04-18T01:34:34.127Z,7.10
2023-04-18T01:37:00.582Z,6.96
2023-04-18T01:39:27.206Z,7.02
2023-04-18T01:41:53.713Z,6.94
2023-04-18T01:44:20.408Z,6.92
2023-04-18T01:46:46.956Z,6.89
2023-04-18T01:49:13.663Z,6.84
2023-04-18T01:51:40.905Z,6.79
2023-04-18T01:54:07.425Z,6.76
2023-04-18T01:56:33.976Z,6.72
2023-04-18T01:59:00.421Z,6.72
2023-04-18T02:01:27.107Z,6.66
2023-04-18T02:03:53.981Z,6.66
2023-04-18T02:06:20.703Z,6.49
2023-04-18T02:08:47.278Z,6.60
2023-04-18T02:11:13.743Z,6.54
2023-04-18T02:13:40.221Z,6.57
2023-04-18T02:16:12.407Z,6.52
2023-04-18T02:18:40.096Z,6.48
2023-04-18T02:21:07.198Z,6.48
2023-04-18T02:23:33.687Z,6.42
2023-04-18T02:26:00.285Z,6.43
2023-04-18T02:28:26.676Z,6.25
2023-04-18T02:30:53.158Z,6.22
2023-04-18T02:33:19.594Z,6.25
2023-04-18T02:35:46.335Z,6.22
2023-04-18T02:38:13.776Z,6.16
2023-04-18T02:40:40.225Z,6.07
2023-04-18T02:43:06.665Z,6.05
2023-04-18T02:45:33.413Z,5.89
2023-04-18T02:48:01.273Z,5.82
2023-04-18T02:50:29.009Z,5.90
2023-04-18T02:52:55.877Z,5.90
2023-04-18T02:55:22.529Z,5.89
2023-04-18T02:57:49.171Z,5.88
2023-04-18T03:00:16.076Z,5.84
2023-04-18T03:02:42.626Z,5.74
2023-04-18T03:05:09.372Z,5.89
2023-04-18T03:07:35.952Z,5.58
2023-04-18T03:10:02.454Z,5.89
2023-04-18T03:12:28.887Z,5.84
2023-04-18T03:14:55.420Z,5.87
2023-04-18T03:17:22.076Z,5.74
2023-04-18T03:19:48.610Z,5.81
2023-04-18T03:22:15.839Z,5.82
2023-04-18T03:24:42.372Z,5.79
2023-04-18T03:27:08.839Z,5.77
2023-04-18T03:29:35.496Z,5.74
2023-04-18T03:32:02.032Z,5.65
2023-04-18T03:34:29.331Z,5.67
2023-04-18T03:36:56.035Z,5.51
2023-04-18T03:39:22.523Z,5.61
2023-04-18T03:41:49.778Z,5.38
2023-04-18T03:44:16.576Z,5.53
2023-04-18T03:46:43.183Z,5.35
2023-04-18T03:49:09.804Z,5.47
2023-04-18T03:51:43.727Z,5.38
2023-04-18T03:54:10.155Z,5.13
2023-04-18T03:56:36.740Z,5.40
2023-04-18T03:59:03.170Z,5.35
2023-04-18T04:01:29.730Z,5.07
2023-04-18T04:03:56.258Z,5.19
2023-04-18T04:06:22.803Z,5.30
2023-04-18T04:08:49.238Z,5.26
2023-04-18T04:11:15.791Z,5.10
2023-04-18T04:13:42.181Z,5.24
2023-04-18T04:16:08.726Z,5.19
2023-04-18T04:18:35.423Z,5.16
2023-04-18T04:21:03.624Z,5.01
2023-04-18T04:23:30.127Z,4.97
2023-04-18T04:25:56.570Z,5.09
2023-04-18T04:28:23.425Z,5.08
2023-04-18T04:30:53.798Z,4.98
2023-04-18T04:33:21.630Z,5.00
2023-04-18T04:35:48.182Z,4.87
2023-04-18T04:38:15.397Z,4.91
2023-04-18T04:40:42.582Z,5.07
2023-04-18T04:43:16.361Z,5.07
2023-04-18T04:45:49.582Z,5.09
2023-04-18T04:48:16.321Z,5.10
2023-04-18T04:50:57.912Z,5.14
2023-04-18T04:53:26.286Z,5.17
2023-04-18T04:55:52.762Z,5.07
2023-04-18T04:58:19.567Z,5.23
2023-04-18T05:00:46.195Z,5.27
2023-04-18T05:03:13.122Z,5.30
2023-04-18T05:05:39.728Z,5.33
2023-04-18T05:08:06.522Z,5.38
2023-04-18T05:10:33.113Z,5.42
2023-04-18T05:12:59.621Z,5.43
2023-04-18T05:15:26.062Z,5.49
2023-04-18T05:17:52.564Z,5.53
2023-04-18T05:20:19.133Z,5.58
2023-04-18T05:22:45.684Z,5.62
2023-04-18T05:25:12.635Z,5.69
2023-04-18T05:27:39.456Z,5.64
2023-04-18T05:30:06.778Z,5.75
2023-04-18T05:32:33.249Z,5.90
2023-04-18T05:34:59.877Z,5.96
2023-04-18T05:37:26.343Z,6.07
2023-04-18T05:39:52.861Z,6.16
2023-04-18T05:42:19.316Z,6.30
2023-04-18T05:44:45.821Z,6.42
2023-04-18T05:47:12.279Z,6.62
2023-04-18T05:49:38.763Z,6.55
2023-04-18T05:52:05.613Z,6.90
2023-04-18T05:54:32.109Z,6.91
2023-04-18T05:56:58.624Z,7.10
2023-04-18T05:59:26.697Z,7.30
2023-04-18T06:01:53.569Z,7.34
2023-04-18T06:04:21.287Z,7.42
2023-04-18T06:06:47.949Z,7.48
2023-04-18T06:09:14.432Z,7.79
2023-04-18T06:11:40.862Z,7.85
2023-04-18T06:14:07.770Z,7.77
2023-04-18T06:16:36.543Z,8.09
2023-04-18T06:19:03.699Z,8.23
2023-04-18T06:21:30.205Z,8.37
2023-04-18T06:23:56.727Z,8.43
2023-04-18T06:26:23.244Z,8.49
2023-04-18T06:28:49.665Z,8.68
2023-04-18T06:31:16.349Z,8.61
2023-04-18T06:33:42.814Z,8.85
2023-04-18T06:36:09.482Z,8.91
2023-04-18T06:38:35.937Z,8.84
2023-04-18T06:41:02.361Z,9.15
2023-04-18T06:43:28.938Z,9.20
2023-04-18T06:45:56.613Z,9.43
2023-04-18T06:48:23.445Z,9.47
2023-04-18T06:50:50.332Z,9.58
2023-04-18T06:53:16.804Z,9.91
2023-04-18T06:55:43.335Z,10.02
2023-04-18T06:58:10.143Z,10.17
2023-04-18T07:00:36.931Z,10.13
2023-04-18T07:03:11.062Z,10.50
2023-04-18T07:05:38.017Z,10.63
2023-04-18T07:08:04.585Z,10.75
2023-04-18T07:10:31.422Z,10.90
2023-04-18T07:12:57.997Z,11.03
2023-04-18T07:15:24.487Z,11.14
2023-04-18T07:17:51.159Z,11.09
2023-04-18T07:20:17.783Z,11.32
2023-04-18T07:22:44.337Z,11.42
2023-04-18T07:25:10.915Z,11.54
2023-04-18T07:27:37.631Z,11.66
2023-04-18T07:30:04.698Z,11.79
2023-04-18T07:32:31.644Z,11.83
2023-04-18T07:34:59.200Z,12.04
2023-04-18T07:37:26.194Z,12.11
2023-04-18T07:39:52.826Z,12.25
2023-04-18T07:42:19.370Z,12.37
2023-04-18T07:44:46.879Z,12.46
2023-04-18T07:47:13.383Z,12.46
2023-04-18T07:49:39.853Z,12.78
2023-04-18T07:52:06.426Z,12.88
2023-04-18T07:54:32.973Z,13.04
2023-04-18T07:56:59.647Z,13.11
2023-04-18T07:59:27.053Z,13.23
2023-04-18T08:01:53.713Z,13.34
2023-04-18T08:04:20.472Z,13.46
2023-04-18T08:06:47.081Z,13.23
2023-04-18T08:09:13.996Z,13.60
2023-04-18T08:11:42.186Z,13.67
2023-04-18T08:14:08.789Z,13.70
2023-04-18T08:16:35.867Z,13.71
2023-04-18T08:19:02.296Z,13.96
2023-04-18T08:21:28.764Z,14.11
2023-04-18T08:23:55.521Z,14.24
2023-04-18T08:26:42.163Z,14.21
2023-04-18T08:29:08.679Z,14.46
2023-04-18T08:31:35.269Z,14.50
2023-04-18T08:34:03.136Z,14.47
2023-04-18T08:36:31.577Z,14.47
2023-04-18T08:38:58.179Z,14.56
2023-04-18T08:41:25.913Z,14.49
2023-04-18T08:43:52.405Z,14.56
2023-04-18T08:46:19.659Z,14.47
2023-04-18T08:48:49.305Z,14.40
2023-04-18T08:51:15.836Z,14.43
2023-04-18T08:53:45.089Z,14.42
2023-04-18T08:56:14.609Z,14.55
2023-04-18T08:58:41.166Z,14.56
2023-04-18T09:01:07.685Z,14.59
2023-04-18T09:03:39.963Z,14.66
2023-04-18T09:06:08.347Z,14.66
2023-04-18T09:08:35.519Z,14.70
2023-04-18T09:11:26.207Z,14.81
2023-04-18T09:13:53.208Z,14.89
2023-04-18T09:16:22.400Z,14.91
2023-04-18T09:19:14.009Z,15.00
2023-04-18T09:21:44.428Z,14.79
2023-04-18T09:24:24.754Z,15.06
2023-04-18T09:26:53.742Z,14.84
2023-04-18T09:29:23.691Z,14.58
2023-04-18T09:32:03.456Z,14.83
2023-04-18T09:34:30.372Z,14.69
2023-04-18T09:37:07.780Z,14.69
2023-04-18T09:39:34.352Z,14.59
2023-04-18T09:42:01.433Z,14.57
2023-04-18T09:44:28.172Z,14.17
2023-04-18T09:46:54.873Z,14.57
2023-04-18T09:49:22.028Z,14.91
2023-04-18T09:51:51.356Z,15.17
2023-04-18T09:54:19.614Z,15.51
2023-04-18T09:56:47.314Z,15.77
2023-04-18T09:59:18.650Z,15.94
2023-04-18T10:01:48.529Z,15.94
2023-04-18T10:04:17.204Z,15.88
2023-04-18T10:06:46.391Z,15.59
2023-04-18T10:09:14.540Z,15.65
2023-04-18T10:11:41.973Z,15.26
2023-04-18T10:14:13.268Z,15.39
2023-04-18T10:16:40.783Z,15.36
2023-04-18T10:19:27.279Z,15.40
2023-04-18T10:21:55.560Z,15.05
2023-04-18T10:24:53.420Z,15.27
2023-04-18T10:27:49.187Z,15.17
2023-04-18T10:30:16.708Z,14.96
2023-04-18T10:32:43.508Z,14.83
2023-04-18T10:35:11.140Z,14.69
2023-04-18T10:37:59.447Z,14.63
2023-04-18T10:43:00.867Z,14.04
2023-04-18T10:45:29.767Z,14.14
2023-04-18T10:48:22.700Z,14.05
2023-04-18T10:51:14.123Z,13.93
2023-04-18T10:53:48.048Z,13.58
2023-04-18T10:56:15.760Z,13.71
2023-04-18T10:58:47.837Z,13.72
2023-04-18T11:01:15.740Z,13.80
2023-04-18T11:03:42.378Z,14.00
2023-04-18T11:06:08.906Z,13.91
2023-04-18T11:08:35.770Z,14.28
2023-04-18T11:11:04.219Z,14.49
2023-04-18T11:13:31.714Z,14.51
2023-04-18T11:15:58.170Z,14.93
2023-04-18T11:18:24.701Z,15.17
2023-04-18T11:20:51.713Z,15.31
2023-04-18T11:23:24.871Z,15.50
2023-04-18T11:25:54.315Z,15.62
2023-04-18T11:28:21.963Z,15.67
2023-04-18T11:30:48.585Z,15.72
2023-04-18T11:33:15.334Z,15.60
2023-04-18T11:35:46.407Z,15.74
2023-04-18T11:38:14.992Z,15.75
2023-04-18T11:40:48.670Z,15.67
2023-04-18T11:43:20.851Z,15.96
2023-04-18T11:45:54.263Z,15.85
2023-04-18T11:48:20.883Z,16.20
2023-04-18T11:50:47.414Z,16.25
2023-04-18T11:53:13.828Z,16.37
2023-04-18T11:55:40.521Z,16.48
2023-04-18T11:58:07.115Z,16.56
2023-04-18T12:00:39.267Z,16.73
2023-04-18T12:03:14.405Z,16.82
2023-04-18T12:05:42.224Z,16.90
2023-04-18T12:08:12.092Z,16.80
2023-04-18T12:10:46.483Z,17.11
2023-04-18T12:13:13.169Z,17.18
2023-04-18T12:15:42.220Z,17.29
2023-04-18T12:18:08.992Z,17.20
2023-04-18T12:20:39.982Z,17.28
2023-04-18T12:23:06.667Z,17.42
2023-04-18T12:25:33.563Z,17.54
2023-04-18T12:28:02.830Z,17.68
2023-04-18T12:30:36.835Z,17.94
2023-04-18T12:33:04.908Z,18.00
2023-04-18T12:35:32.348Z,18.21
2023-04-18T12:38:01.084Z,18.18
2023-04-18T12:40:30.055Z,18.39
2023-04-18T12:42:56.683Z,18.38
2023-04-18T12:45:29.570Z,18.43
2023-04-18T12:47:56.181Z,18.39
2023-04-18T12:50:27.245Z,18.37
2023-04-18T12:52:55.727Z,18.14
2023-04-18T12:55:23.072Z,18.26
2023-04-18T12:57:52.151Z,18.23
2023-04-18T13:00:18.671Z,18.17
2023-04-18T13:02:46.172Z,17.97
2023-04-18T13:05:15.845Z,18.17
2023-04-18T13:07:45.096Z,18.19
2023-04-18T13:10:14.879Z,18.16
2023-04-18T13:12:41.660Z,18.06
2023-04-18T13:15:09.645Z,18.04
2023-04-18T13:17:37.341Z,17.96
2023-04-18T13:20:08.832Z,17.82
2023-04-18T13:22:35.760Z,17.76
2023-04-18T13:25:03.117Z,17.75
2023-04-18T13:27:29.735Z,17.65
2023-04-18T13:29:57.216Z,17.65
2023-04-18T13:32:24.376Z,17.74
2023-04-18T13:34:51.164Z,17.75
2023-04-18T13:37:17.655Z,17.85
2023-04-18T13:39:44.454Z,18.00
2023-04-18T13:42:10.936Z,18.14
2023-04-18T13:44:38.281Z,18.26
2023-04-18T13:47:06.222Z,18.48
2023-04-18T13:49:38.845Z,18.63
2023-04-18T13:52:08.074Z,18.82
2023-04-18T13:54:34.919Z,19.09
2023-04-18T13:57:03.253Z,18.84
2023-04-18T13:59:31.960Z,18.97
2023-04-18T14:01:58.927Z,18.93
2023-04-18T14:04:27.042Z,18.94
2023-04-18T14:06:53.881Z,18.82
2023-04-18T14:09:20.583Z,18.64
2023-04-18T14:11:49.538Z,18.73
2023-04-18T14:14:16.069Z,18.71
2023-04-18T14:16:42.623Z,18.61
2023-04-18T14:19:12.634Z,18.54
2023-04-18T14:21:39.590Z,18.65
2023-04-18T14:24:06.773Z,18.70
2023-04-18T14:26:33.255Z,18.74
2023-04-18T14:29:00.431Z,18.75
2023-04-18T14:31:28.178Z,18.77
2023-04-18T14:33:54.645Z,18.76
2023-04-18T14:36:21.242Z,18.63
2023-04-18T14:38:49.073Z,18.43
2023-04-18T14:41:16.467Z,18.41
2023-04-18T14:43:43.148Z,18.33
2023-04-18T14:46:16.645Z,18.21
2023-04-18T14:48:47.248Z,18.11
2023-04-18T14:51:15.887Z,17.99
2023-04-18T14:53:42.462Z,17.86
2023-04-18T14:56:11.848Z,17.90
2023-04-18T14:58:38.592Z,17.81
2023-04-18T15:01:05.427Z,17.62
2023-04-18T15:03:32.340Z,17.69
2023-04-18T15:05:59.375Z,17.53
2023-04-18T15:08:26.008Z,17.50
2023-04-18T15:10:52.619Z,17.39
2023-04-18T15:13:20.908Z,17.28
2023-04-18T15:15:55.054Z,17.21
2023-04-18T15:18:21.859Z,17.03
2023-04-18T15:20:51.799Z,16.86
2023-04-18T15:23:20.918Z,17.04
2023-04-18T15:25:47.648Z,16.51
2023-04-18T15:28:14.187Z,16.96
2023-04-18T15:30:40.799Z,17.07
2023-04-18T15:33:07.692Z,16.87
2023-04-18T15:35:34.238Z,17.04
2023-04-18T15:38:00.760Z,17.04
2023-04-18T15:40:27.326Z,17.28
2023-04-18T15:42:54.513Z,17.39
2023-04-18T15:45:21.839Z,17.49
2023-04-18T15:47:48.455Z,17.75
2023-04-18T15:50:16.361Z,17.77
2023-04-18T15:52:43.324Z,17.80
2023-04-18T15:55:13.404Z,17.82
2023-04-18T15:57:40.552Z,18.05
2023-04-18T16:00:19.698Z,17.97
2023-04-18T16:02:46.721Z,18.20
2023-04-18T16:05:13.652Z,18.30
2023-04-18T16:07:41.229Z,18.46
2023-04-18T16:10:10.328Z,18.61
2023-04-18T16:12:39.550Z,18.74
2023-04-18T16:15:08.071Z,18.86
2023-04-18T16:17:36.701Z,19.00
2023-04-18T16:20:03.749Z,18.97
2023-04-18T16:22:30.578Z,19.21
2023-04-18T16:24:57.460Z,19.24
2023-04-18T16:27:23.923Z,19.14
2023-04-18T16:29:50.541Z,19.08
2023-04-18T16:32:17.259Z,19.14
2023-04-18T16:34:43.749Z,18.89
2023-04-18T16:37:10.219Z,18.87
2023-04-18T16:39:36.954Z,18.60
2023-04-18T16:42:03.796Z,18.58
2023-04-18T16:44:30.762Z,18.38
2023-04-18T16:46:57.324Z,18.18
2023-04-18T16:49:23.893Z,18.06
2023-04-18T16:51:50.993Z,17.92
2023-04-18T16:54:17.866Z,17.44
2023-04-18T16:56:44.825Z,17.42
2023-04-18T16:59:11.441Z,17.68
2023-04-18T17:01:38.145Z,17.56
2023-04-18T17:04:05.161Z,17.45
2023-04-18T17:06:32.564Z,17.50
2023-04-18T17:08:59.021Z,17.37
2023-04-18T17:11:26.403Z,17.33
2023-04-18T17:13:53.012Z,17.13
2023-04-18T17:16:19.500Z,17.19
2023-04-18T17:18:45.944Z,17.09
2023-04-18T17:21:12.579Z,16.96
2023-04-18T17:23:41.517Z,16.87
2023-04-18T17:26:09.014Z,16.44
2023-04-18T17:28:36.220Z,16.31
2023-04-18T17:31:02.875Z,16.40
2023-04-18T17:33:29.365Z,16.24
2023-04-18T17:35:55.994Z,15.74
2023-04-18T17:38:23.258Z,16.00
2023-04-18T17:40:58.032Z,15.80
2023-04-18T17:43:24.681Z,15.68
2023-04-18T17:45:51.461Z,15.80
2023-04-18T17:48:18.011Z,15.77
2023-04-18T17:50:44.584Z,15.67
2023-04-18T17:53:12.418Z,15.50
2023-04-18T17:55:40.290Z,15.44
2023-04-18T17:58:13.553Z,15.33
2023-04-18T18:00:40.082Z,14.89
2023-04-18T18:03:08.913Z,15.09
2023-04-18T18:05:35.570Z,14.86
2023-04-18T18:08:02.144Z,14.73
2023-04-18T18:10:29.117Z,14.59
2023-04-18T18:12:56.267Z,14.39
2023-04-18T18:15:24.212Z,14.15
2023-04-18T18:17:51.832Z,13.94
2023-04-18T18:20:19.148Z,13.56
2023-04-18T18:22:46.266Z,13.62
2023-04-18T18:25:13.072Z,13.45
2023-04-18T18:27:40.672Z,13.24
2023-04-18T18:30:08.091Z,13.11
2023-04-18T18:32:34.748Z,12.94
2023-04-18T18:35:01.773Z,12.78
2023-04-18T18:37:28.221Z,12.62
2023-04-18T18:39:56.155Z,12.46
2023-04-18T18:42:22.755Z,12.30
2023-04-18T18:44:49.300Z,12.18
2023-04-18T18:47:17.339Z,12.04
2023-04-18T18:49:43.863Z,11.92
2023-04-18T18:52:10.372Z,11.79
2023-04-18T18:54:36.866Z,11.49
2023-04-18T18:57:03.343Z,11.34
2023-04-18T18:59:29.927Z,11.34
2023-04-18T19:01:56.554Z,10.94
2023-04-18T19:04:24.830Z,11.24
2023-04-18T19:06:51.434Z,11.05
2023-04-18T19:09:17.863Z,10.98
2023-04-18T19:11:44.384Z,10.90
2023-04-18T19:14:10.848Z,10.90
2023-04-18T19:16:37.538Z,10.80
2023-04-18T19:19:04.272Z,10.72
2023-04-18T19:21:31.412Z,10.46
2023-04-18T19:23:57.880Z,10.53
2023-04-18T19:26:24.380Z,10.51
2023-04-18T19:28:50.823Z,10.45
2023-04-18T19:31:17.405Z,10.33
2023-04-18T19:33:43.924Z,10.28
2023-04-18T19:36:10.366Z,10.23
2023-04-18T19:38:36.890Z,9.98
2023-04-18T19:41:03.423Z,10.11
2023-04-18T19:43:29.864Z,10.06
2023-04-18T19:45:56.368Z,10.00
2023-04-18T19:48:22.881Z,9.92
2023-04-18T19:50:49.658Z,9.82
2023-04-18T19:53:16.348Z,9.78
2023-04-18T19:55:44.849Z,9.75
2023-04-18T19:58:11.391Z,9.60
2023-04-18T20:00:38.229Z,9.69
2023-04-18T20:03:05.118Z,9.51
2023-04-18T20:05:31.899Z,9.49
2023-04-18T20:07:58.400Z,9.53
2023-04-18T20:10:24.996Z,9.45
2023-04-18T20:12:51.796Z,9.08
2023-04-18T20:15:18.565Z,9.44
2023-04-18T20:17:45.142Z,9.40
2023-04-18T20:20:12.310Z,9.36
2023-04-18T20:22:41.752Z,9.33
2023-04-18T20:25:08.972Z,9.10
2023-04-18T20:27:35.759Z,9.25
2023-04-18T20:30:02.485Z,9.16
2023-04-18T20:32:29.127Z,9.15
2023-04-18T20:34:55.692Z,9.13
2023-04-18T20:37:22.307Z,9.14
2023-04-18T20:39:48.994Z,9.11
2023-04-18T20:42:15.901Z,8.98
2023-04-18T20:44:46.728Z,9.07
2023-04-18T20:47:15.526Z,9.00
2023-04-18T20:49:42.710Z,9.02
2023-04-18T20:52:09.645Z,9.03
2023-04-18T20:54:36.371Z,9.01
2023-04-18T20:57:05.497Z,8.95
2023-04-18T20:59:32.295Z,8.98
2023-04-18T21:01:59.008Z,8.79
2023-04-18T21:04:25.891Z,8.95
2023-04-18T21:06:52.513Z,8.75
2023-04-18T21:09:19.295Z,8.87
2023-04-18T21:11:45.966Z,8.82
2023-04-18T21:14:12.840Z,8.81
2023-04-18T21:16:39.849Z,8.72
2023-04-18T21:19:06.911Z,8.76
2023-04-18T21:21:34.387Z,8.69
2023-04-18T21:24:01.870Z,8.66
2023-04-18T21:26:28.679Z,8.58
2023-04-18T21:28:59.939Z,8.54
2023-04-18T21:31:28.700Z,8.41
2023-04-18T21:34:00.481Z,8.40
2023-04-18T21:36:28.018Z,8.24
2023-04-18T21:38:56.024Z,8.28
2023-04-18T21:41:23.762Z,8.22
2023-04-18T21:43:50.795Z,8.11
2023-04-18T21:46:18.272Z,8.00
2023-04-18T21:48:46.691Z,8.03
2023-04-18T21:51:15.026Z,7.97
2023-04-18T21:53:42.409Z,7.92
2023-04-18T21:56:09.012Z,7.88
2023-04-18T21:58:35.619Z,7.62
2023-04-18T22:01:02.447Z,7.79
2023-04-18T22:03:29.514Z,7.74
2023-04-18T22:05:56.713Z,7.67
2023-04-18T22:08:25.634Z,7.51
2023-04-18T22:10:56.219Z,7.50
2023-04-18T22:13:23.076Z,7.50
2023-04-18T22:15:51.452Z,7.38
2023-04-18T22:18:18.895Z,7.38
2023-04-18T22:20:47.340Z,7.25
2023-04-18T22:23:14.119Z,7.27
2023-04-18T22:25:40.832Z,6.92
2023-04-18T22:28:07.617Z,6.94
2023-04-18T22:30:34.452Z,7.09
2023-04-18T22:33:01.181Z,7.05
2023-04-18T22:35:27.919Z,6.99
2023-04-18T22:37:55.899Z,6.96
2023-04-18T22:40:22.584Z,6.91
2023-04-18T22:42:51.876Z,6.84
2023-04-18T22:45:19.403Z,6.79
2023-04-18T22:47:46.739Z,6.79
2023-04-18T22:50:14.146Z,6.67
2023-04-18T22:52:41.217Z,6.78
2023-04-18T22:55:08.549Z,6.81
2023-04-18T22:57:35.282Z,6.60
2023-04-18T23:00:01.876Z,6.75
2023-04-18T23:02:28.636Z,6.74
2023-04-18T23:05:01.378Z,6.65
2023-04-18T23:07:28.544Z,6.48
2023-04-18T23:09:55.067Z,6.61
2023-04-18T23:12:22.016Z,6.56
2023-04-18T23:14:48.766Z,6.54
2023-04-18T23:17:15.314Z,6.55
2023-04-18T23:19:41.802Z,6.44
2023-04-18T23:22:08.294Z,6.47
2023-04-18T23:24:34.760Z,6.31
2023-04-18T23:27:01.792Z,6.37
2023-04-18T23:29:28.418Z,6.40
2023-04-18T23:31:55.103Z,6.38
2023-04-18T23:34:21.740Z,6.35
2023-04-18T23:36:48.320Z,6.33
2023-04-18T23:39:14.988Z,6.31
2023-04-18T23:41:41.450Z,6.15
2023-04-18T23:44:07.945Z,6.12
2023-04-18T23:46:36.373Z,6.29
2023-04-18T23:49:03.478Z,6.27
2023-04-18T23:51:29.946Z,6.25
2023-04-18T23:53:56.469Z,6.20
2023-04-18T23:56:23.214Z,6.20
2023-04-18T23:58:50.545Z,6.15
